NCAR-RAP Real-Time Weather Data

Output produced by METARs form (01 October 2022  04:03 UTC)
found at http://weather.rap.ucar.edu/surface/
 
WBSB 010330Z 02008KT 9999 FEW016 BKN300 32/26 Q1009 NOSIG
WBSB 010300Z 36008KT 9999 SCT015 FEW016CB BKN300 32/26 Q1010 NOSIG
WBSB 010230Z 30007KT 9999 SCT015 FEW016CB BKN300 32/26 Q1010 NOSIG
WBSB 010200Z 36007KT 9999 SCT015 FEW016CB BKN300 32/26 Q1010 NOSIG
WBSB 010130Z 08004KT 9999 FEW015 FEW016CB BKN300 31/26 Q1010 NOSIG
WBSB 010100Z 07003KT 9999 FEW015 FEW016CB BKN300 31/26 Q1010 NOSIG
WBSB 010030Z 07002KT 9999 FEW015 FEW016CB BKN300 30/27 Q1010 NOSIG
WBSB 010000Z 20003KT 9999 FEW014 FEW015CB BKN300 28/27 Q1010 NOSIG
WBSB 302330Z 19002KT 9999 SCT014 FEW015CB BKN300 27/26 Q1010 NOSIG
WBSB 302300Z 23004KT 9999 SCT014 FEW015CB BKN300 26/26 Q1010 NOSIG
WBSB 302230Z 16003KT 9999 SCT014 FEW015CB BKN300 26/26 Q1010 NOSIG
WBSB 302200Z 20003KT 9999 SCT014 FEW015CB BKN300 26/26 Q1009 NOSIG
WBSB 302130Z 21003KT 9999 FEW014 SCT140 BKN300 26/26 Q1009 NOSIG
WBSB 302100Z 18005KT 9999 FEW014 SCT140 BKN300 26/26 Q1009 NOSIG
WBSB 302030Z 16002KT 9999 FEW014 SCT140 BKN300 27/27 Q1009 NOSIG
WBSB 302000Z 10002KT 9999 FEW014 SCT140 BKN300 27/27 Q1009 NOSIG
WBSB 301930Z 05001KT 9999 FEW014 SCT140 BKN300 27/27 Q1009 NOSIG
WBSB 301900Z 07002KT 9999 FEW014 SCT140 BKN300 28/27 Q1009 NOSIG
WBSB 301830Z 05002KT 9999 FEW014 SCT140 BKN300 28/27 Q1009 NOSIG
WBSB 301800Z 04002KT 9999 FEW014 SCT140 BKN300 28/27 Q1009 NOSIG
WBSB 301730Z 06003KT 9999 FEW014 SCT140 BKN300 28/27 Q1009 NOSIG
WBSB 301700Z 04003KT 9999 FEW014 SCT140 BKN300 28/27 Q1009 NOSIG
WBSB 301630Z 06002KT 9999 SCT014 SCT140 BKN300 28/27 Q1010 NOSIG